sensor_id;sensor_type;location;lat;lon;timestamp;P1;durP1;ratioP1;P2;durP2;ratioP2
6149;SDS011;3106;42.670;23.318;2023-02-22T00:00:09;33.57;;;12.83;;
6149;SDS011;3106;42.670;23.318;2023-02-22T00:02:47;34.37;;;13.47;;
6149;SDS011;3106;42.670;23.318;2023-02-22T00:05:16;41.53;;;14.30;;
6149;SDS011;3106;42.670;23.318;2023-02-22T00:07:45;27.30;;;13.30;;
6149;SDS011;3106;42.670;23.318;2023-02-22T00:10:13;38.37;;;13.40;;
6149;SDS011;3106;42.670;23.318;2023-02-22T00:12:44;26.20;;;12.90;;
6149;SDS011;3106;42.670;23.318;2023-02-22T00:15:12;29.63;;;12.17;;
6149;SDS011;3106;42.670;23.318;2023-02-22T00:17:40;26.80;;;12.40;;
6149;SDS011;3106;42.670;23.318;2023-02-22T00:20:08;33.93;;;12.27;;
6149;SDS011;3106;42.670;23.318;2023-02-22T00:22:40;34.50;;;13.20;;
6149;SDS011;3106;42.670;23.318;2023-02-22T00:25:08;28.37;;;12.40;;
6149;SDS011;3106;42.670;23.318;2023-02-22T00:27:35;22.30;;;10.77;;
6149;SDS011;3106;42.670;23.318;2023-02-22T00:30:02;30.47;;;11.67;;
6149;SDS011;3106;42.670;23.318;2023-02-22T00:32:29;26.63;;;10.70;;
6149;SDS011;3106;42.670;23.318;2023-02-22T00:34:56;23.53;;;10.70;;
6149;SDS011;3106;42.670;23.318;2023-02-22T00:37:23;21.57;;;10.13;;
6149;SDS011;3106;42.670;23.318;2023-02-22T00:39:51;24.33;;;10.50;;
6149;SDS011;3106;42.670;23.318;2023-02-22T00:42:18;25.17;;;10.10;;
6149;SDS011;3106;42.670;23.318;2023-02-22T00:44:45;19.90;;;10.03;;
6149;SDS011;3106;42.670;23.318;2023-02-22T00:47:12;26.53;;;9.93;;
6149;SDS011;3106;42.670;23.318;2023-02-22T00:49:39;25.30;;;9.10;;
6149;SDS011;3106;42.670;23.318;2023-02-22T00:52:05;19.90;;;8.80;;
6149;SDS011;3106;42.670;23.318;2023-02-22T00:54:33;25.87;;;9.57;;
6149;SDS011;3106;42.670;23.318;2023-02-22T00:57:01;17.43;;;8.43;;
6149;SDS011;3106;42.670;23.318;2023-02-22T00:59:29;22.33;;;8.77;;
6149;SDS011;3106;42.670;23.318;2023-02-22T01:01:56;17.60;;;8.40;;
6149;SDS011;3106;42.670;23.318;2023-02-22T01:04:23;18.20;;;7.97;;
6149;SDS011;3106;42.670;23.318;2023-02-22T01:06:50;17.47;;;7.60;;
6149;SDS011;3106;42.670;23.318;2023-02-22T01:09:18;16.13;;;8.30;;
6149;SDS011;3106;42.670;23.318;2023-02-22T01:11:46;17.70;;;8.90;;
6149;SDS011;3106;42.670;23.318;2023-02-22T01:14:15;16.40;;;8.27;;
6149;SDS011;3106;42.670;23.318;2023-02-22T01:16:42;19.00;;;9.30;;
6149;SDS011;3106;42.670;23.318;2023-02-22T01:19:09;21.20;;;9.53;;
6149;SDS011;3106;42.670;23.318;2023-02-22T01:21:36;29.20;;;9.00;;
6149;SDS011;3106;42.670;23.318;2023-02-22T01:24:05;27.03;;;9.50;;
6149;SDS011;3106;42.670;23.318;2023-02-22T01:26:32;26.33;;;10.70;;
6149;SDS011;3106;42.670;23.318;2023-02-22T01:28:59;24.90;;;9.73;;
6149;SDS011;3106;42.670;23.318;2023-02-22T01:31:28;17.90;;;9.30;;
6149;SDS011;3106;42.670;23.318;2023-02-22T01:33:54;17.20;;;8.53;;
6149;SDS011;3106;42.670;23.318;2023-02-22T01:36:21;18.90;;;8.87;;
6149;SDS011;3106;42.670;23.318;2023-02-22T01:38:48;15.37;;;7.53;;
6149;SDS011;3106;42.670;23.318;2023-02-22T01:41:17;24.90;;;9.83;;
6149;SDS011;3106;42.670;23.318;2023-02-22T01:43:51;24.33;;;9.70;;
6149;SDS011;3106;42.670;23.318;2023-02-22T01:46:55;19.13;;;9.30;;
6149;SDS011;3106;42.670;23.318;2023-02-22T01:49:31;33.00;;;9.67;;
6149;SDS011;3106;42.670;23.318;2023-02-22T01:52:04;17.80;;;8.57;;
6149;SDS011;3106;42.670;23.318;2023-02-22T01:54:34;16.93;;;8.70;;
6149;SDS011;3106;42.670;23.318;2023-02-22T01:57:07;20.10;;;8.43;;
6149;SDS011;3106;42.670;23.318;2023-02-22T01:59:39;23.10;;;8.60;;
6149;SDS011;3106;42.670;23.318;2023-02-22T02:02:09;23.13;;;8.60;;
6149;SDS011;3106;42.670;23.318;2023-02-22T02:04:37;24.60;;;9.00;;
6149;SDS011;3106;42.670;23.318;2023-02-22T02:07:07;16.93;;;8.63;;
6149;SDS011;3106;42.670;23.318;2023-02-22T02:09:37;17.97;;;8.20;;
6149;SDS011;3106;42.670;23.318;2023-02-22T02:12:10;19.20;;;8.80;;
6149;SDS011;3106;42.670;23.318;2023-02-22T02:14:40;16.43;;;8.20;;
6149;SDS011;3106;42.670;23.318;2023-02-22T02:17:08;20.70;;;9.13;;
6149;SDS011;3106;42.670;23.318;2023-02-22T02:19:42;21.70;;;9.27;;
6149;SDS011;3106;42.670;23.318;2023-02-22T02:22:27;26.53;;;10.00;;
6149;SDS011;3106;42.670;23.318;2023-02-22T02:25:15;28.00;;;11.07;;
6149;SDS011;3106;42.670;23.318;2023-02-22T02:34:16;25.27;;;10.50;;
6149;SDS011;3106;42.670;23.318;2023-02-22T02:36:51;30.10;;;11.60;;
6149;SDS011;3106;42.670;23.318;2023-02-22T02:39:28;26.57;;;12.47;;
6149;SDS011;3106;42.670;23.318;2023-02-22T02:42:01;21.77;;;10.47;;
6149;SDS011;3106;42.670;23.318;2023-02-22T02:44:35;22.77;;;11.13;;
6149;SDS011;3106;42.670;23.318;2023-02-22T02:47:07;28.20;;;10.40;;
6149;SDS011;3106;42.670;23.318;2023-02-22T02:49:42;21.73;;;10.07;;
6149;SDS011;3106;42.670;23.318;2023-02-22T02:52:13;25.13;;;10.07;;
6149;SDS011;3106;42.670;23.318;2023-02-22T02:54:44;19.30;;;10.57;;
6149;SDS011;3106;42.670;23.318;2023-02-22T02:57:12;21.47;;;9.73;;
6149;SDS011;3106;42.670;23.318;2023-02-22T02:59:39;23.37;;;10.03;;
6149;SDS011;3106;42.670;23.318;2023-02-22T03:02:11;25.70;;;9.80;;
6149;SDS011;3106;42.670;23.318;2023-02-22T03:04:55;23.23;;;9.90;;
6149;SDS011;3106;42.670;23.318;2023-02-22T03:07:41;30.50;;;10.43;;
6149;SDS011;3106;42.670;23.318;2023-02-22T03:10:25;22.50;;;9.07;;
6149;SDS011;3106;42.670;23.318;2023-02-22T03:13:05;22.70;;;10.30;;
6149;SDS011;3106;42.670;23.318;2023-02-22T03:15:39;23.47;;;10.00;;
6149;SDS011;3106;42.670;23.318;2023-02-22T03:18:19;27.53;;;9.47;;
6149;SDS011;3106;42.670;23.318;2023-02-22T03:21:04;20.10;;;10.33;;
6149;SDS011;3106;42.670;23.318;2023-02-22T03:23:42;24.70;;;8.80;;
6149;SDS011;3106;42.670;23.318;2023-02-22T03:26:14;22.00;;;9.57;;
6149;SDS011;3106;42.670;23.318;2023-02-22T03:28:48;20.70;;;9.70;;
6149;SDS011;3106;42.670;23.318;2023-02-22T03:31:22;18.17;;;8.37;;
6149;SDS011;3106;42.670;23.318;2023-02-22T03:33:52;15.80;;;7.50;;
6149;SDS011;3106;42.670;23.318;2023-02-22T03:36:25;20.57;;;8.53;;
6149;SDS011;3106;42.670;23.318;2023-02-22T03:38:56;23.90;;;7.03;;
6149;SDS011;3106;42.670;23.318;2023-02-22T03:41:24;22.57;;;9.37;;
6149;SDS011;3106;42.670;23.318;2023-02-22T03:43:56;14.70;;;6.83;;
6149;SDS011;3106;42.670;23.318;2023-02-22T03:46:28;21.27;;;8.60;;
6149;SDS011;3106;42.670;23.318;2023-02-22T03:48:57;14.20;;;7.07;;
6149;SDS011;3106;42.670;23.318;2023-02-22T03:51:30;22.23;;;8.27;;
6149;SDS011;3106;42.670;23.318;2023-02-22T03:53:57;19.67;;;6.97;;
6149;SDS011;3106;42.670;23.318;2023-02-22T03:56:25;16.03;;;8.70;;
6149;SDS011;3106;42.670;23.318;2023-02-22T03:59:00;18.30;;;8.60;;
6149;SDS011;3106;42.670;23.318;2023-02-22T04:01:28;20.03;;;8.20;;
6149;SDS011;3106;42.670;23.318;2023-02-22T04:03:55;12.63;;;6.10;;
6149;SDS011;3106;42.670;23.318;2023-02-22T04:06:21;12.37;;;5.90;;
6149;SDS011;3106;42.670;23.318;2023-02-22T04:08:50;8.67;;;4.80;;
6149;SDS011;3106;42.670;23.318;2023-02-22T04:11:17;9.70;;;4.50;;
6149;SDS011;3106;42.670;23.318;2023-02-22T04:13:44;10.27;;;4.47;;
6149;SDS011;3106;42.670;23.318;2023-02-22T04:16:11;10.33;;;4.80;;
6149;SDS011;3106;42.670;23.318;2023-02-22T04:18:37;8.33;;;4.43;;
6149;SDS011;3106;42.670;23.318;2023-02-22T04:21:04;10.93;;;4.70;;
6149;SDS011;3106;42.670;23.318;2023-02-22T04:23:33;10.70;;;5.57;;
6149;SDS011;3106;42.670;23.318;2023-02-22T04:26:01;17.53;;;5.83;;
6149;SDS011;3106;42.670;23.318;2023-02-22T04:28:28;14.97;;;6.03;;
6149;SDS011;3106;42.670;23.318;2023-02-22T04:30:55;18.43;;;8.53;;
6149;SDS011;3106;42.670;23.318;2023-02-22T04:33:22;18.10;;;9.37;;
6149;SDS011;3106;42.670;23.318;2023-02-22T04:35:49;18.10;;;10.03;;
6149;SDS011;3106;42.670;23.318;2023-02-22T04:38:16;24.23;;;10.10;;
6149;SDS011;3106;42.670;23.318;2023-02-22T04:40:43;28.90;;;12.73;;
6149;SDS011;3106;42.670;23.318;2023-02-22T04:43:13;28.73;;;11.80;;
6149;SDS011;3106;42.670;23.318;2023-02-22T04:45:40;24.80;;;12.13;;
6149;SDS011;3106;42.670;23.318;2023-02-22T04:48:06;28.50;;;12.17;;
6149;SDS011;3106;42.670;23.318;2023-02-22T04:50:33;31.60;;;12.67;;
6149;SDS011;3106;42.670;23.318;2023-02-22T04:53:00;30.07;;;12.27;;
6149;SDS011;3106;42.670;23.318;2023-02-22T04:55:27;30.63;;;13.47;;
6149;SDS011;3106;42.670;23.318;2023-02-22T04:57:54;22.53;;;10.97;;
6149;SDS011;3106;42.670;23.318;2023-02-22T05:00:23;21.90;;;11.97;;
6149;SDS011;3106;42.670;23.318;2023-02-22T05:02:51;25.83;;;11.73;;
6149;SDS011;3106;42.670;23.318;2023-02-22T05:05:18;28.47;;;12.10;;
6149;SDS011;3106;42.670;23.318;2023-02-22T05:07:46;32.40;;;11.93;;
6149;SDS011;3106;42.670;23.318;2023-02-22T05:10:13;44.03;;;12.70;;
6149;SDS011;3106;42.670;23.318;2023-02-22T05:12:41;37.20;;;13.40;;
6149;SDS011;3106;42.670;23.318;2023-02-22T05:15:14;29.17;;;10.23;;
6149;SDS011;3106;42.670;23.318;2023-02-22T05:17:44;20.80;;;8.20;;
6149;SDS011;3106;42.670;23.318;2023-02-22T05:20:15;25.50;;;10.17;;
6149;SDS011;3106;42.670;23.318;2023-02-22T05:22:50;23.30;;;10.40;;
6149;SDS011;3106;42.670;23.318;2023-02-22T05:25:17;27.70;;;10.50;;
6149;SDS011;3106;42.670;23.318;2023-02-22T05:27:48;26.00;;;10.20;;
6149;SDS011;3106;42.670;23.318;2023-02-22T05:30:22;18.60;;;8.20;;
6149;SDS011;3106;42.670;23.318;2023-02-22T05:32:52;16.83;;;6.97;;
6149;SDS011;3106;42.670;23.318;2023-02-22T05:35:20;28.13;;;9.30;;
6149;SDS011;3106;42.670;23.318;2023-02-22T05:37:48;40.70;;;12.10;;
6149;SDS011;3106;42.670;23.318;2023-02-22T05:40:17;29.33;;;11.97;;
6149;SDS011;3106;42.670;23.318;2023-02-22T05:42:45;34.00;;;14.37;;
6149;SDS011;3106;42.670;23.318;2023-02-22T05:45:12;29.57;;;11.80;;
6149;SDS011;3106;42.670;23.318;2023-02-22T05:47:40;43.07;;;12.50;;
6149;SDS011;3106;42.670;23.318;2023-02-22T05:50:09;39.70;;;15.97;;
6149;SDS011;3106;42.670;23.318;2023-02-22T05:52:36;33.93;;;13.03;;
6149;SDS011;3106;42.670;23.318;2023-02-22T05:55:04;30.80;;;13.20;;
6149;SDS011;3106;42.670;23.318;2023-02-22T05:57:31;75.77;;;12.23;;
6149;SDS011;3106;42.670;23.318;2023-02-22T05:59:58;32.33;;;12.40;;
6149;SDS011;3106;42.670;23.318;2023-02-22T06:02:32;38.70;;;13.00;;
6149;SDS011;3106;42.670;23.318;2023-02-22T06:04:59;32.70;;;12.40;;
6149;SDS011;3106;42.670;23.318;2023-02-22T06:07:27;28.10;;;10.03;;
6149;SDS011;3106;42.670;23.318;2023-02-22T06:09:54;14.67;;;7.00;;
6149;SDS011;3106;42.670;23.318;2023-02-22T06:12:21;18.67;;;7.23;;
6149;SDS011;3106;42.670;23.318;2023-02-22T06:14:48;29.63;;;10.10;;
6149;SDS011;3106;42.670;23.318;2023-02-22T06:17:15;34.43;;;13.63;;
6149;SDS011;3106;42.670;23.318;2023-02-22T06:19:41;29.17;;;11.97;;
6149;SDS011;3106;42.670;23.318;2023-02-22T06:22:10;36.87;;;11.80;;
6149;SDS011;3106;42.670;23.318;2023-02-22T06:24:43;35.37;;;12.43;;
6149;SDS011;3106;42.670;23.318;2023-02-22T06:27:10;44.90;;;15.70;;
6149;SDS011;3106;42.670;23.318;2023-02-22T06:29:37;44.87;;;14.80;;
6149;SDS011;3106;42.670;23.318;2023-02-22T06:32:04;30.50;;;13.00;;
6149;SDS011;3106;42.670;23.318;2023-02-22T06:34:31;35.27;;;12.50;;
6149;SDS011;3106;42.670;23.318;2023-02-22T06:36:57;28.50;;;12.37;;
6149;SDS011;3106;42.670;23.318;2023-02-22T06:39:24;26.63;;;10.27;;
6149;SDS011;3106;42.670;23.318;2023-02-22T06:41:53;26.53;;;9.80;;
6149;SDS011;3106;42.670;23.318;2023-02-22T06:44:21;23.63;;;9.93;;
6149;SDS011;3106;42.670;23.318;2023-02-22T06:46:48;35.83;;;12.37;;
6149;SDS011;3106;42.670;23.318;2023-02-22T06:49:16;26.30;;;12.40;;
6149;SDS011;3106;42.670;23.318;2023-02-22T06:51:44;35.13;;;13.23;;
6149;SDS011;3106;42.670;23.318;2023-02-22T06:54:12;21.47;;;8.73;;
6149;SDS011;3106;42.670;23.318;2023-02-22T06:56:39;31.50;;;13.03;;
6149;SDS011;3106;42.670;23.318;2023-02-22T06:59:07;35.23;;;12.80;;
6149;SDS011;3106;42.670;23.318;2023-02-22T07:01:35;40.03;;;15.50;;
6149;SDS011;3106;42.670;23.318;2023-02-22T07:04:02;33.87;;;14.70;;
6149;SDS011;3106;42.670;23.318;2023-02-22T07:06:29;31.63;;;14.10;;
6149;SDS011;3106;42.670;23.318;2023-02-22T07:08:56;30.63;;;13.70;;
6149;SDS011;3106;42.670;23.318;2023-02-22T07:11:23;35.10;;;15.00;;
6149;SDS011;3106;42.670;23.318;2023-02-22T07:13:52;28.00;;;12.40;;
6149;SDS011;3106;42.670;23.318;2023-02-22T07:16:21;33.87;;;13.77;;
6149;SDS011;3106;42.670;23.318;2023-02-22T07:18:48;34.43;;;14.80;;
6149;SDS011;3106;42.670;23.318;2023-02-22T07:21:15;31.80;;;14.03;;
6149;SDS011;3106;42.670;23.318;2023-02-22T07:23:49;28.37;;;12.60;;
6149;SDS011;3106;42.670;23.318;2023-02-22T07:26:17;31.87;;;12.03;;
6149;SDS011;3106;42.670;23.318;2023-02-22T07:28:44;35.47;;;13.77;;
6149;SDS011;3106;42.670;23.318;2023-02-22T07:31:11;35.73;;;15.90;;
6149;SDS011;3106;42.670;23.318;2023-02-22T07:33:39;34.33;;;12.47;;
6149;SDS011;3106;42.670;23.318;2023-02-22T07:36:06;47.13;;;18.27;;
6149;SDS011;3106;42.670;23.318;2023-02-22T07:38:34;36.33;;;13.73;;
6149;SDS011;3106;42.670;23.318;2023-02-22T07:41:01;43.63;;;14.50;;
6149;SDS011;3106;42.670;23.318;2023-02-22T07:43:28;48.80;;;14.90;;
6149;SDS011;3106;42.670;23.318;2023-02-22T07:45:56;36.00;;;14.03;;
6149;SDS011;3106;42.670;23.318;2023-02-22T07:48:25;43.03;;;12.80;;
6149;SDS011;3106;42.670;23.318;2023-02-22T07:50:55;24.90;;;11.77;;
6149;SDS011;3106;42.670;23.318;2023-02-22T07:53:22;30.67;;;12.10;;
6149;SDS011;3106;42.670;23.318;2023-02-22T07:55:50;27.63;;;11.80;;
6149;SDS011;3106;42.670;23.318;2023-02-22T07:58:18;29.70;;;11.53;;
6149;SDS011;3106;42.670;23.318;2023-02-22T08:00:46;36.00;;;12.73;;
6149;SDS011;3106;42.670;23.318;2023-02-22T08:03:14;52.43;;;23.23;;
6149;SDS011;3106;42.670;23.318;2023-02-22T08:05:44;29.63;;;12.50;;
6149;SDS011;3106;42.670;23.318;2023-02-22T08:08:14;29.33;;;11.67;;
6149;SDS011;3106;42.670;23.318;2023-02-22T08:10:42;25.40;;;11.70;;
6149;SDS011;3106;42.670;23.318;2023-02-22T08:13:09;26.83;;;13.50;;
6149;SDS011;3106;42.670;23.318;2023-02-22T08:15:37;34.23;;;14.03;;
6149;SDS011;3106;42.670;23.318;2023-02-22T08:18:09;34.63;;;13.70;;
6149;SDS011;3106;42.670;23.318;2023-02-22T08:20:37;42.87;;;13.97;;
6149;SDS011;3106;42.670;23.318;2023-02-22T08:23:06;32.90;;;14.70;;
6149;SDS011;3106;42.670;23.318;2023-02-22T08:25:35;37.73;;;14.00;;
6149;SDS011;3106;42.670;23.318;2023-02-22T08:28:04;32.17;;;12.63;;
6149;SDS011;3106;42.670;23.318;2023-02-22T08:30:32;30.63;;;14.20;;
6149;SDS011;3106;42.670;23.318;2023-02-22T08:33:02;34.30;;;13.30;;
6149;SDS011;3106;42.670;23.318;2023-02-22T08:35:29;32.73;;;13.30;;
6149;SDS011;3106;42.670;23.318;2023-02-22T08:37:58;28.33;;;13.60;;
6149;SDS011;3106;42.670;23.318;2023-02-22T08:40:27;36.07;;;12.80;;
6149;SDS011;3106;42.670;23.318;2023-02-22T08:42:58;29.03;;;12.07;;
6149;SDS011;3106;42.670;23.318;2023-02-22T08:45:27;36.90;;;13.30;;
6149;SDS011;3106;42.670;23.318;2023-02-22T08:47:56;32.87;;;14.00;;
6149;SDS011;3106;42.670;23.318;2023-02-22T08:50:25;29.83;;;12.83;;
6149;SDS011;3106;42.670;23.318;2023-02-22T08:52:55;35.60;;;11.97;;
6149;SDS011;3106;42.670;23.318;2023-02-22T08:55:25;37.80;;;12.47;;
6149;SDS011;3106;42.670;23.318;2023-02-22T08:57:54;29.23;;;11.53;;
6149;SDS011;3106;42.670;23.318;2023-02-22T09:00:23;22.93;;;12.20;;
6149;SDS011;3106;42.670;23.318;2023-02-22T09:02:50;19.27;;;10.00;;
6149;SDS011;3106;42.670;23.318;2023-02-22T09:05:17;23.67;;;10.63;;
6149;SDS011;3106;42.670;23.318;2023-02-22T09:07:44;19.40;;;9.70;;
6149;SDS011;3106;42.670;23.318;2023-02-22T09:10:12;19.07;;;9.07;;
6149;SDS011;3106;42.670;23.318;2023-02-22T09:12:41;19.37;;;8.83;;
6149;SDS011;3106;42.670;23.318;2023-02-22T09:15:08;17.10;;;8.30;;
6149;SDS011;3106;42.670;23.318;2023-02-22T09:17:37;17.23;;;7.87;;
6149;SDS011;3106;42.670;23.318;2023-02-22T09:20:05;17.70;;;8.87;;
6149;SDS011;3106;42.670;23.318;2023-02-22T09:22:35;18.57;;;8.27;;
6149;SDS011;3106;42.670;23.318;2023-02-22T09:25:03;32.13;;;9.13;;
6149;SDS011;3106;42.670;23.318;2023-02-22T09:27:31;17.73;;;8.20;;
6149;SDS011;3106;42.670;23.318;2023-02-22T09:29:58;15.10;;;7.20;;
6149;SDS011;3106;42.670;23.318;2023-02-22T09:32:25;14.53;;;8.37;;
6149;SDS011;3106;42.670;23.318;2023-02-22T09:34:54;18.23;;;6.50;;
6149;SDS011;3106;42.670;23.318;2023-02-22T09:37:21;17.10;;;6.87;;
6149;SDS011;3106;42.670;23.318;2023-02-22T09:39:48;18.70;;;6.60;;
6149;SDS011;3106;42.670;23.318;2023-02-22T09:42:19;10.00;;;4.87;;
6149;SDS011;3106;42.670;23.318;2023-02-22T09:44:56;8.37;;;4.33;;
6149;SDS011;3106;42.670;23.318;2023-02-22T09:47:33;20.00;;;4.63;;
6149;SDS011;3106;42.670;23.318;2023-02-22T09:50:07;10.10;;;4.57;;
6149;SDS011;3106;42.670;23.318;2023-02-22T09:52:42;11.70;;;4.23;;
6149;SDS011;3106;42.670;23.318;2023-02-22T09:55:21;7.33;;;3.40;;
6149;SDS011;3106;42.670;23.318;2023-02-22T09:57:58;5.13;;;3.50;;
6149;SDS011;3106;42.670;23.318;2023-02-22T10:00:29;6.83;;;4.17;;
6149;SDS011;3106;42.670;23.318;2023-02-22T10:03:05;5.90;;;3.83;;
6149;SDS011;3106;42.670;23.318;2023-02-22T10:05:50;8.37;;;5.00;;
6149;SDS011;3106;42.670;23.318;2023-02-22T10:08:21;6.37;;;3.57;;
6149;SDS011;3106;42.670;23.318;2023-02-22T10:10:55;8.67;;;5.27;;
6149;SDS011;3106;42.670;23.318;2023-02-22T10:13:34;9.97;;;3.53;;
6149;SDS011;3106;42.670;23.318;2023-02-22T10:16:12;7.23;;;3.80;;
6149;SDS011;3106;42.670;23.318;2023-02-22T10:18:52;9.33;;;4.50;;
6149;SDS011;3106;42.670;23.318;2023-02-22T10:21:48;7.07;;;4.30;;
6149;SDS011;3106;42.670;23.318;2023-02-22T10:24:37;12.50;;;6.90;;
6149;SDS011;3106;42.670;23.318;2023-02-22T10:27:13;10.00;;;4.10;;
6149;SDS011;3106;42.670;23.318;2023-02-22T10:29:45;7.47;;;4.07;;
6149;SDS011;3106;42.670;23.318;2023-02-22T10:32:17;13.20;;;4.30;;
6149;SDS011;3106;42.670;23.318;2023-02-22T10:34:53;10.57;;;4.33;;
6149;SDS011;3106;42.670;23.318;2023-02-22T10:37:25;13.27;;;4.60;;
6149;SDS011;3106;42.670;23.318;2023-02-22T10:39:55;8.03;;;4.07;;
6149;SDS011;3106;42.670;23.318;2023-02-22T10:42:30;9.40;;;4.20;;
6149;SDS011;3106;42.670;23.318;2023-02-22T10:44:57;8.20;;;4.30;;
6149;SDS011;3106;42.670;23.318;2023-02-22T10:47:24;9.80;;;4.93;;
6149;SDS011;3106;42.670;23.318;2023-02-22T10:49:52;6.70;;;3.87;;
6149;SDS011;3106;42.670;23.318;2023-02-22T10:52:25;8.80;;;4.30;;
6149;SDS011;3106;42.670;23.318;2023-02-22T10:54:54;7.23;;;4.37;;
6149;SDS011;3106;42.670;23.318;2023-02-22T10:57:23;12.50;;;4.30;;
6149;SDS011;3106;42.670;23.318;2023-02-22T10:59:52;10.80;;;4.43;;
6149;SDS011;3106;42.670;23.318;2023-02-22T11:02:22;6.93;;;4.10;;
6149;SDS011;3106;42.670;23.318;2023-02-22T11:04:53;7.80;;;4.17;;
6149;SDS011;3106;42.670;23.318;2023-02-22T11:07:23;5.80;;;3.73;;
6149;SDS011;3106;42.670;23.318;2023-02-22T11:09:54;6.97;;;4.63;;
6149;SDS011;3106;42.670;23.318;2023-02-22T11:12:26;7.60;;;4.13;;
6149;SDS011;3106;42.670;23.318;2023-02-22T11:14:56;5.63;;;3.50;;
6149;SDS011;3106;42.670;23.318;2023-02-22T11:17:27;5.43;;;3.73;;
6149;SDS011;3106;42.670;23.318;2023-02-22T11:22:27;6.30;;;3.50;;
6149;SDS011;3106;42.670;23.318;2023-02-22T11:24:58;7.40;;;3.73;;
6149;SDS011;3106;42.670;23.318;2023-02-22T11:27:29;11.00;;;3.40;;
6149;SDS011;3106;42.670;23.318;2023-02-22T11:32:55;6.97;;;3.40;;
6149;SDS011;3106;42.670;23.318;2023-02-22T11:35:49;8.07;;;3.10;;
6149;SDS011;3106;42.670;23.318;2023-02-22T11:38:23;6.20;;;3.30;;
6149;SDS011;3106;42.670;23.318;2023-02-22T11:43:39;6.57;;;3.00;;
6149;SDS011;3106;42.670;23.318;2023-02-22T11:46:09;7.43;;;3.00;;
6149;SDS011;3106;42.670;23.318;2023-02-22T11:48:40;6.23;;;3.20;;
6149;SDS011;3106;42.670;23.318;2023-02-22T11:51:25;8.13;;;3.20;;
6149;SDS011;3106;42.670;23.318;2023-02-22T11:54:11;4.57;;;2.90;;
6149;SDS011;3106;42.670;23.318;2023-02-22T11:56:50;9.40;;;2.93;;
6149;SDS011;3106;42.670;23.318;2023-02-22T11:59:24;4.17;;;3.00;;
6149;SDS011;3106;42.670;23.318;2023-02-22T12:02:04;7.13;;;3.00;;
6149;SDS011;3106;42.670;23.318;2023-02-22T12:04:58;4.50;;;3.40;;
6149;SDS011;3106;42.670;23.318;2023-02-22T12:07:41;3.73;;;2.80;;
6149;SDS011;3106;42.670;23.318;2023-02-22T12:10:23;5.13;;;3.13;;
6149;SDS011;3106;42.670;23.318;2023-02-22T12:13:04;9.87;;;3.50;;
6149;SDS011;3106;42.670;23.318;2023-02-22T12:15:43;6.70;;;3.20;;
6149;SDS011;3106;42.670;23.318;2023-02-22T12:18:18;6.73;;;2.73;;
6149;SDS011;3106;42.670;23.318;2023-02-22T12:20:54;10.53;;;7.00;;
6149;SDS011;3106;42.670;23.318;2023-02-22T12:23:24;4.67;;;2.80;;
6149;SDS011;3106;42.670;23.318;2023-02-22T12:26:04;5.70;;;3.50;;
6149;SDS011;3106;42.670;23.318;2023-02-22T12:28:42;4.03;;;2.83;;
6149;SDS011;3106;42.670;23.318;2023-02-22T12:31:16;4.70;;;3.57;;
6149;SDS011;3106;42.670;23.318;2023-02-22T12:33:54;5.40;;;3.10;;
6149;SDS011;3106;42.670;23.318;2023-02-22T12:36:38;4.13;;;3.10;;
6149;SDS011;3106;42.670;23.318;2023-02-22T12:42:17;4.60;;;2.90;;
6149;SDS011;3106;42.670;23.318;2023-02-22T12:44:51;5.57;;;3.13;;
6149;SDS011;3106;42.670;23.318;2023-02-22T12:47:43;5.70;;;2.80;;
6149;SDS011;3106;42.670;23.318;2023-02-22T12:50:16;4.23;;;3.27;;
6149;SDS011;3106;42.670;23.318;2023-02-22T12:52:49;11.63;;;6.13;;
6149;SDS011;3106;42.670;23.318;2023-02-22T12:55:22;9.80;;;4.23;;
6149;SDS011;3106;42.670;23.318;2023-02-22T12:57:55;5.27;;;3.80;;
6149;SDS011;3106;42.670;23.318;2023-02-22T13:00:27;8.70;;;3.03;;
6149;SDS011;3106;42.670;23.318;2023-02-22T13:03:01;7.87;;;4.00;;
6149;SDS011;3106;42.670;23.318;2023-02-22T13:05:44;9.00;;;3.47;;
6149;SDS011;3106;42.670;23.318;2023-02-22T13:08:23;7.10;;;3.80;;
6149;SDS011;3106;42.670;23.318;2023-02-22T13:11:10;5.17;;;3.63;;
6149;SDS011;3106;42.670;23.318;2023-02-22T13:13:45;5.90;;;3.00;;
6149;SDS011;3106;42.670;23.318;2023-02-22T13:16:21;3.87;;;3.00;;
6149;SDS011;3106;42.670;23.318;2023-02-22T13:19:00;5.73;;;4.00;;
6149;SDS011;3106;42.670;23.318;2023-02-22T13:21:39;4.07;;;2.80;;
6149;SDS011;3106;42.670;23.318;2023-02-22T13:24:17;6.37;;;3.00;;
6149;SDS011;3106;42.670;23.318;2023-02-22T13:26:52;6.73;;;3.60;;
6149;SDS011;3106;42.670;23.318;2023-02-22T13:29:32;4.63;;;3.40;;
6149;SDS011;3106;42.670;23.318;2023-02-22T13:32:10;4.13;;;3.20;;
6149;SDS011;3106;42.670;23.318;2023-02-22T13:34:56;4.93;;;3.23;;
6149;SDS011;3106;42.670;23.318;2023-02-22T13:37:43;4.23;;;3.27;;
6149;SDS011;3106;42.670;23.318;2023-02-22T13:40:40;5.17;;;3.30;;
6149;SDS011;3106;42.670;23.318;2023-02-22T13:43:31;7.43;;;3.30;;
6149;SDS011;3106;42.670;23.318;2023-02-22T13:49:19;6.27;;;3.60;;
6149;SDS011;3106;42.670;23.318;2023-02-22T13:51:59;6.37;;;3.50;;
6149;SDS011;3106;42.670;23.318;2023-02-22T13:54:33;7.40;;;3.80;;
6149;SDS011;3106;42.670;23.318;2023-02-22T14:03:02;9.30;;;3.80;;
6149;SDS011;3106;42.670;23.318;2023-02-22T14:05:45;5.10;;;3.50;;
6149;SDS011;3106;42.670;23.318;2023-02-22T14:14:16;6.70;;;4.33;;
6149;SDS011;3106;42.670;23.318;2023-02-22T14:20:01;5.80;;;4.00;;
6149;SDS011;3106;42.670;23.318;2023-02-22T14:25:53;9.07;;;4.63;;
6149;SDS011;3106;42.670;23.318;2023-02-22T14:28:36;5.73;;;4.10;;
6149;SDS011;3106;42.670;23.318;2023-02-22T14:31:09;5.63;;;3.30;;
6149;SDS011;3106;42.670;23.318;2023-02-22T14:34:03;8.77;;;4.60;;
6149;SDS011;3106;42.670;23.318;2023-02-22T14:36:40;4.40;;;3.50;;
6149;SDS011;3106;42.670;23.318;2023-02-22T14:39:14;8.80;;;3.97;;
6149;SDS011;3106;42.670;23.318;2023-02-22T14:41:48;5.83;;;3.83;;
6149;SDS011;3106;42.670;23.318;2023-02-22T14:44:24;29.27;;;16.27;;
6149;SDS011;3106;42.670;23.318;2023-02-22T14:46:57;11.60;;;4.13;;
6149;SDS011;3106;42.670;23.318;2023-02-22T14:49:33;9.23;;;4.13;;
6149;SDS011;3106;42.670;23.318;2023-02-22T14:52:05;7.50;;;4.67;;
6149;SDS011;3106;42.670;23.318;2023-02-22T14:54:48;11.43;;;7.30;;
6149;SDS011;3106;42.670;23.318;2023-02-22T14:57:24;8.20;;;4.67;;
6149;SDS011;3106;42.670;23.318;2023-02-22T14:59:58;9.67;;;4.57;;
6149;SDS011;3106;42.670;23.318;2023-02-22T15:02:43;6.07;;;4.00;;
6149;SDS011;3106;42.670;23.318;2023-02-22T15:05:11;9.50;;;5.00;;
6149;SDS011;3106;42.670;23.318;2023-02-22T15:07:47;8.60;;;4.50;;
6149;SDS011;3106;42.670;23.318;2023-02-22T15:10:19;7.60;;;5.13;;
6149;SDS011;3106;42.670;23.318;2023-02-22T15:12:53;6.47;;;4.20;;
6149;SDS011;3106;42.670;23.318;2023-02-22T15:15:33;12.53;;;5.10;;
6149;SDS011;3106;42.670;23.318;2023-02-22T15:18:00;12.23;;;5.23;;
6149;SDS011;3106;42.670;23.318;2023-02-22T15:20:33;8.70;;;5.50;;
6149;SDS011;3106;42.670;23.318;2023-02-22T15:23:03;12.40;;;4.87;;
6149;SDS011;3106;42.670;23.318;2023-02-22T15:25:30;9.30;;;5.27;;
6149;SDS011;3106;42.670;23.318;2023-02-22T15:28:02;9.67;;;4.90;;
6149;SDS011;3106;42.670;23.318;2023-02-22T15:30:36;16.73;;;5.10;;
6149;SDS011;3106;42.670;23.318;2023-02-22T15:33:11;12.33;;;6.07;;
6149;SDS011;3106;42.670;23.318;2023-02-22T15:35:42;15.37;;;5.50;;
6149;SDS011;3106;42.670;23.318;2023-02-22T15:38:25;12.10;;;5.47;;
6149;SDS011;3106;42.670;23.318;2023-02-22T15:40:57;7.80;;;5.33;;
6149;SDS011;3106;42.670;23.318;2023-02-22T15:43:26;7.73;;;5.30;;
6149;SDS011;3106;42.670;23.318;2023-02-22T15:45:54;10.77;;;5.83;;
6149;SDS011;3106;42.670;23.318;2023-02-22T15:48:24;13.70;;;6.30;;
6149;SDS011;3106;42.670;23.318;2023-02-22T15:53:42;14.23;;;6.27;;